createdAt,value
2022-12-18T00:01:14.547Z,42.50
2022-12-18T00:03:16.953Z,44.37
2022-12-18T00:05:18.556Z,50.73
2022-12-18T00:07:31.930Z,43.63
2022-12-18T00:09:39.666Z,44.00
2022-12-18T00:11:44.410Z,45.17
2022-12-18T00:13:46.531Z,41.80
2022-12-18T00:15:48.188Z,39.87
2022-12-18T00:17:50.041Z,36.87
2022-12-18T00:19:53.149Z,44.43
2022-12-18T00:21:55.227Z,44.43
2022-12-18T00:23:58.066Z,44.00
2022-12-18T00:26:04.672Z,42.63
2022-12-18T00:28:06.621Z,40.40
2022-12-18T00:30:08.878Z,34.70
2022-12-18T00:32:11.504Z,36.13
2022-12-18T00:34:14.093Z,32.67
2022-12-18T00:36:20.887Z,36.13
2022-12-18T00:38:22.655Z,34.27
2022-12-18T00:40:28.064Z,32.43
2022-12-18T00:42:48.280Z,29.60
2022-12-18T00:44:49.809Z,30.33
2022-12-18T00:46:52.674Z,34.30
2022-12-18T00:48:54.556Z,30.77
2022-12-18T00:50:56.702Z,32.97
2022-12-18T00:52:58.660Z,35.27
2022-12-18T00:57:07.581Z,30.33
2022-12-18T00:59:09.108Z,33.47
2022-12-18T01:01:10.894Z,35.13
2022-12-18T01:03:15.949Z,37.60
2022-12-18T01:05:19.473Z,28.40
2022-12-18T01:07:21.078Z,36.50
2022-12-18T01:09:25.439Z,31.87
2022-12-18T01:11:27.391Z,35.10
2022-12-18T01:13:38.973Z,33.13
2022-12-18T01:15:41.013Z,34.13
2022-12-18T01:17:46.354Z,35.70
2022-12-18T01:19:48.043Z,39.77
2022-12-18T01:21:49.872Z,40.40
2022-12-18T01:23:56.201Z,42.37
2022-12-18T01:25:59.072Z,39.37
2022-12-18T01:28:00.815Z,37.20
2022-12-18T01:30:02.387Z,37.50
2022-12-18T01:32:05.537Z,36.83
2022-12-18T01:34:07.187Z,38.17
2022-12-18T01:36:16.386Z,37.80
2022-12-18T01:38:18.854Z,38.20
2022-12-18T01:40:20.971Z,39.93
2022-12-18T01:42:26.610Z,45.17
2022-12-18T01:45:05.811Z,49.63
2022-12-18T01:47:07.510Z,45.57
2022-12-18T01:49:12.943Z,45.20
2022-12-18T01:51:15.206Z,45.20
2022-12-18T01:53:25.421Z,43.97
2022-12-18T01:55:30.590Z,42.07
2022-12-18T01:57:32.201Z,41.03
2022-12-18T01:59:37.804Z,45.03
2022-12-18T02:01:42.782Z,42.23
2022-12-18T02:03:44.999Z,45.70
2022-12-18T02:06:08.582Z,43.50
2022-12-18T02:08:40.729Z,43.07
2022-12-18T02:11:07.141Z,42.83
2022-12-18T02:13:21.131Z,41.20
2022-12-18T02:16:07.907Z,42.63
2022-12-18T02:18:16.662Z,38.73
2022-12-18T02:20:47.894Z,41.97
2022-12-18T02:23:00.727Z,41.43
2022-12-18T02:25:22.610Z,40.47
2022-12-18T02:27:24.245Z,35.57
2022-12-18T02:29:54.357Z,35.57
2022-12-18T02:32:01.057Z,38.77
2022-12-18T02:34:08.530Z,32.33
2022-12-18T02:36:17.092Z,34.70
2022-12-18T02:38:19.283Z,38.03
2022-12-18T02:40:27.433Z,37.37
2022-12-18T02:42:29.694Z,35.07
2022-12-18T02:44:31.417Z,36.57
2022-12-18T02:46:40.246Z,37.30
2022-12-18T02:48:47.678Z,37.67
2022-12-18T02:51:00.984Z,38.20
2022-12-18T02:53:05.410Z,33.07
2022-12-18T02:55:43.959Z,37.83
2022-12-18T02:57:58.589Z,33.53
2022-12-18T03:00:13.237Z,37.67
2022-12-18T03:02:30.031Z,33.47
2022-12-18T03:04:41.201Z,31.00
2022-12-18T03:06:52.369Z,42.40
2022-12-18T03:08:59.607Z,34.77
2022-12-18T03:11:07.147Z,41.03
2022-12-18T03:13:13.607Z,35.30
2022-12-18T03:15:23.882Z,35.67
2022-12-18T03:17:34.832Z,32.03
2022-12-18T03:19:36.902Z,36.83
2022-12-18T03:21:54.183Z,37.17
2022-12-18T03:23:56.759Z,37.00
2022-12-18T03:26:08.222Z,35.53
2022-12-18T03:28:20.655Z,35.97
2022-12-18T03:30:23.269Z,37.53
2022-12-18T03:32:41.594Z,34.13
2022-12-18T03:34:47.862Z,35.07
2022-12-18T03:36:51.090Z,36.53
2022-12-18T03:38:53.488Z,35.57
2022-12-18T03:41:32.981Z,34.93
2022-12-18T03:43:59.903Z,34.37
2022-12-18T03:46:18.140Z,35.53
2022-12-18T03:49:21.438Z,37.30
2022-12-18T03:51:35.744Z,36.23
2022-12-18T03:54:02.327Z,34.40
2022-12-18T03:56:10.077Z,34.80
2022-12-18T03:58:20.660Z,36.43
2022-12-18T04:00:31.470Z,36.23
2022-12-18T04:02:54.869Z,33.23
2022-12-18T04:05:07.711Z,44.67
2022-12-18T04:07:14.429Z,34.00
2022-12-18T04:09:22.107Z,33.97
2022-12-18T04:11:24.653Z,37.40
2022-12-18T04:13:35.184Z,41.77
2022-12-18T04:15:39.951Z,37.07
2022-12-18T04:17:50.913Z,45.90
2022-12-18T04:19:55.879Z,32.70
2022-12-18T04:21:59.665Z,39.17
2022-12-18T04:24:02.516Z,43.17
2022-12-18T04:26:05.175Z,40.43
2022-12-18T04:28:18.842Z,35.53
2022-12-18T04:30:21.358Z,34.43
2022-12-18T04:32:25.551Z,38.07
2022-12-18T04:34:29.842Z,38.80
2022-12-18T04:36:33.202Z,40.53
2022-12-18T04:38:34.951Z,38.10
2022-12-18T04:40:42.445Z,42.17
2022-12-18T04:42:52.549Z,37.63
2022-12-18T04:44:54.221Z,37.33
2022-12-18T04:46:58.761Z,37.67
2022-12-18T04:49:00.323Z,33.60
2022-12-18T04:51:01.973Z,36.80
2022-12-18T04:53:06.485Z,34.67
2022-12-18T04:55:08.457Z,37.43
2022-12-18T04:57:10.212Z,34.13
2022-12-18T04:59:11.876Z,39.00
2022-12-18T05:01:14.922Z,35.80
2022-12-18T05:03:16.791Z,35.43
2022-12-18T05:05:18.656Z,35.40
2022-12-18T05:07:20.453Z,37.70
2022-12-18T05:09:22.416Z,32.50
2022-12-18T05:11:24.037Z,35.17
2022-12-18T05:13:25.598Z,34.47
2022-12-18T05:15:31.539Z,28.63
2022-12-18T05:17:33.149Z,31.50
2022-12-18T05:19:34.725Z,34.90
2022-12-18T05:21:36.556Z,30.43
2022-12-18T05:23:38.808Z,31.87
2022-12-18T05:25:40.804Z,31.63
2022-12-18T05:27:43.384Z,32.37
2022-12-18T05:29:53.835Z,33.20
2022-12-18T05:31:58.120Z,34.70
2022-12-18T05:33:59.705Z,42.87
2022-12-18T05:36:03.602Z,37.30
2022-12-18T05:38:07.741Z,46.53
2022-12-18T05:40:13.068Z,46.30
2022-12-18T05:42:14.641Z,48.33
2022-12-18T05:44:17.379Z,50.87
2022-12-18T05:46:19.652Z,47.37
2022-12-18T05:48:24.256Z,46.80
2022-12-18T05:50:25.873Z,42.73
2022-12-18T05:52:27.573Z,44.20
2022-12-18T05:54:29.494Z,41.00
2022-12-18T05:56:31.214Z,39.57
2022-12-18T05:58:35.983Z,38.43
2022-12-18T06:00:40.835Z,33.40
2022-12-18T06:02:45.002Z,37.50
2022-12-18T06:04:50.687Z,37.83
2022-12-18T06:06:52.299Z,36.97
2022-12-18T06:08:55.853Z,29.43
2022-12-18T06:10:57.455Z,34.40
2022-12-18T06:12:59.271Z,32.43
2022-12-18T06:15:01.426Z,33.90
2022-12-18T06:17:03.334Z,36.57
2022-12-18T06:19:06.586Z,31.07
2022-12-18T06:21:08.278Z,34.97
2022-12-18T06:23:13.364Z,35.33
2022-12-18T06:25:17.024Z,29.47
2022-12-18T06:27:21.945Z,32.00
2022-12-18T06:29:23.675Z,30.83
2022-12-18T06:31:26.269Z,33.87
2022-12-18T06:33:29.127Z,30.13
2022-12-18T06:35:30.689Z,30.37
2022-12-18T06:37:32.980Z,24.73
2022-12-18T06:39:35.004Z,29.40
2022-12-18T06:41:40.797Z,30.97
2022-12-18T06:43:45.656Z,26.50
2022-12-18T06:45:53.572Z,30.03
2022-12-18T06:47:55.261Z,27.13
2022-12-18T06:49:56.775Z,26.47
2022-12-18T06:51:58.376Z,26.33
2022-12-18T06:53:59.979Z,31.90
2022-12-18T06:56:10.392Z,25.37
2022-12-18T06:58:12.402Z,30.03
2022-12-18T07:00:14.576Z,27.00
2022-12-18T07:02:16.426Z,23.60
2022-12-18T07:04:18.887Z,27.97
2022-12-18T07:06:22.510Z,24.87
2022-12-18T07:08:24.169Z,29.40
2022-12-18T07:10:26.966Z,23.73
2022-12-18T07:12:28.875Z,26.80
2022-12-18T07:14:30.677Z,24.57
2022-12-18T07:16:32.310Z,26.67
2022-12-18T07:18:36.963Z,29.03
2022-12-18T07:20:38.576Z,27.23
2022-12-18T07:22:40.402Z,28.53
2022-12-18T07:24:44.407Z,32.47
2022-12-18T07:26:52.227Z,26.73
2022-12-18T07:28:58.546Z,26.60
2022-12-18T07:31:04.788Z,30.17
2022-12-18T07:33:06.614Z,28.80
2022-12-18T07:35:08.209Z,27.60
2022-12-18T07:37:09.793Z,24.20
2022-12-18T07:39:14.683Z,28.03
2022-12-18T07:41:16.910Z,25.70
2022-12-18T07:43:21.298Z,30.37
2022-12-18T07:45:23.162Z,29.10
2022-12-18T07:47:24.844Z,23.60
2022-12-18T07:49:26.604Z,27.67
2022-12-18T07:51:28.275Z,26.20
2022-12-18T07:53:29.994Z,29.17
2022-12-18T07:55:59.973Z,24.27
2022-12-18T07:57:59.404Z,27.90
2022-12-18T08:00:04.026Z,25.70
2022-12-18T08:02:16.218Z,25.83
2022-12-18T08:04:18.233Z,27.03
2022-12-18T08:06:25.294Z,29.80
2022-12-18T08:08:27.105Z,26.80
2022-12-18T08:10:30.904Z,30.30
2022-12-18T08:12:32.565Z,28.73
2022-12-18T08:14:34.146Z,28.40
2022-12-18T08:16:37.736Z,27.43
2022-12-18T08:18:39.506Z,28.07
2022-12-18T08:20:44.106Z,25.50
2022-12-18T08:22:45.864Z,22.63
2022-12-18T08:24:49.971Z,26.23
2022-12-18T08:27:20.848Z,29.47
2022-12-18T08:29:21.434Z,27.47
2022-12-18T08:31:24.155Z,29.90
2022-12-18T08:33:27.182Z,29.07
2022-12-18T08:35:34.236Z,28.73
2022-12-18T08:37:38.228Z,30.40
2022-12-18T08:39:39.803Z,30.87
2022-12-18T08:41:41.443Z,27.70
2022-12-18T08:44:02.293Z,26.93
2022-12-18T08:46:04.124Z,30.50
2022-12-18T08:48:06.149Z,28.93
2022-12-18T08:50:08.067Z,28.83
2022-12-18T08:52:09.932Z,27.40
2022-12-18T08:54:15.014Z,27.03
2022-12-18T08:56:18.427Z,28.60
2022-12-18T08:58:20.917Z,30.07
2022-12-18T09:00:22.965Z,26.53
2022-12-18T09:02:24.602Z,28.70
2022-12-18T09:04:26.321Z,27.93
2022-12-18T09:06:27.999Z,28.47
2022-12-18T09:08:30.211Z,27.00
2022-12-18T09:10:32.014Z,26.03
2022-12-18T09:12:35.774Z,30.87
2022-12-18T09:14:41.243Z,31.70
2022-12-18T09:16:43.396Z,31.17
2022-12-18T09:18:47.488Z,29.70
2022-12-18T09:20:52.680Z,31.17
2022-12-18T09:22:57.179Z,30.67
2022-12-18T09:24:58.951Z,29.43
2022-12-18T09:27:00.776Z,31.33
2022-12-18T09:29:04.231Z,32.90
2022-12-18T09:31:08.711Z,37.97
2022-12-18T09:33:10.817Z,35.90
2022-12-18T09:35:12.542Z,37.00
2022-12-18T09:37:14.564Z,37.00
2022-12-18T09:39:16.127Z,37.47
2022-12-18T09:41:48.948Z,36.30
2022-12-18T09:43:54.852Z,35.53
2022-12-18T09:46:02.338Z,33.17
2022-12-18T09:48:06.262Z,31.17
2022-12-18T09:50:25.249Z,33.23
2022-12-18T09:52:38.765Z,32.93
2022-12-18T09:55:05.438Z,33.37
2022-12-18T09:57:07.297Z,33.10
2022-12-18T09:59:24.246Z,31.57
2022-12-18T10:01:34.041Z,29.40
2022-12-18T10:03:40.990Z,32.17
2022-12-18T10:05:55.303Z,31.63
2022-12-18T10:08:22.749Z,32.50
2022-12-18T10:10:31.136Z,30.27
2022-12-18T10:13:13.599Z,32.80
2022-12-18T10:15:25.790Z,32.23
2022-12-18T10:17:51.520Z,29.20
2022-12-18T10:20:06.111Z,30.43
2022-12-18T10:22:27.364Z,28.63
2022-12-18T10:24:45.216Z,28.70
2022-12-18T10:26:48.139Z,31.77
2022-12-18T10:28:52.089Z,31.30
2022-12-18T10:30:54.168Z,28.03
2022-12-18T10:33:03.077Z,30.43
2022-12-18T10:35:05.571Z,26.53
2022-12-18T10:37:16.694Z,27.23
2022-12-18T10:39:28.841Z,28.63
2022-12-18T10:41:31.955Z,26.80
2022-12-18T10:43:35.339Z,26.30
2022-12-18T10:45:36.930Z,25.87
2022-12-18T10:47:46.238Z,25.40
2022-12-18T10:49:54.879Z,25.27
2022-12-18T10:52:29.032Z,26.53
2022-12-18T10:54:32.534Z,25.47
2022-12-18T10:56:38.688Z,24.63
2022-12-18T10:58:45.859Z,25.97
2022-12-18T11:01:16.613Z,27.57
2022-12-18T11:03:38.437Z,27.23
2022-12-18T11:05:40.195Z,26.20
2022-12-18T11:07:57.998Z,26.50
2022-12-18T11:10:03.561Z,27.67
2022-12-18T11:12:19.094Z,27.00
2022-12-18T11:14:47.589Z,24.73
2022-12-18T11:19:27.290Z,24.93
2022-12-18T11:21:29.949Z,26.60
2022-12-18T11:23:31.547Z,25.03
2022-12-18T11:25:37.320Z,23.50
2022-12-18T11:27:40.985Z,29.33
2022-12-18T11:29:46.567Z,26.90
2022-12-18T11:31:48.966Z,24.07
2022-12-18T11:34:27.611Z,23.00
2022-12-18T11:36:23.127Z,27.23
2022-12-18T11:38:38.478Z,25.90
2022-12-18T11:40:45.106Z,24.30
2022-12-18T11:42:55.831Z,24.13
2022-12-18T11:45:28.535Z,29.73
2022-12-18T11:47:53.317Z,27.23
2022-12-18T11:49:57.953Z,23.67
2022-12-18T11:52:21.861Z,27.73
2022-12-18T11:54:23.642Z,23.37
2022-12-18T11:56:40.260Z,24.47
2022-12-18T11:59:00.220Z,25.53
2022-12-18T12:01:16.012Z,23.60
2022-12-18T12:03:41.151Z,28.73
2022-12-18T12:05:58.104Z,28.33
2022-12-18T12:08:20.713Z,26.17
2022-12-18T12:10:49.397Z,23.97
2022-12-18T12:13:24.791Z,26.00
2022-12-18T12:15:46.130Z,22.93
2022-12-18T12:18:11.511Z,22.03
2022-12-18T12:20:39.456Z,22.83
2022-12-18T12:25:53.999Z,21.67
2022-12-18T12:28:27.717Z,24.40
2022-12-18T12:31:16.727Z,23.23
2022-12-18T12:33:52.368Z,22.87
2022-12-18T12:36:17.973Z,22.27
2022-12-18T12:38:29.058Z,23.80
2022-12-18T12:40:55.220Z,23.13
2022-12-18T12:43:15.809Z,23.77
2022-12-18T12:45:34.071Z,26.30
2022-12-18T12:47:42.994Z,24.13
2022-12-18T12:49:48.718Z,22.73
2022-12-18T12:52:04.218Z,22.83
2022-12-18T12:54:13.966Z,22.90
2022-12-18T12:56:19.576Z,22.83
2022-12-18T12:58:55.150Z,23.07
2022-12-18T13:01:08.548Z,27.97
2022-12-18T13:03:36.331Z,22.23
2022-12-18T13:05:49.279Z,21.73
2022-12-18T13:07:59.322Z,23.07
2022-12-18T13:10:17.658Z,23.53
2022-12-18T13:12:39.971Z,24.33
2022-12-18T13:14:42.536Z,23.87
2022-12-18T13:16:44.156Z,24.07
2022-12-18T13:18:51.927Z,23.23
2022-12-18T13:21:03.272Z,20.73
2022-12-18T13:23:24.116Z,23.77
2022-12-18T13:25:34.174Z,25.57
2022-12-18T13:27:49.798Z,25.73
2022-12-18T13:29:56.867Z,23.10
2022-12-18T13:32:00.799Z,23.20
2022-12-18T13:34:28.264Z,23.27
2022-12-18T13:36:32.920Z,23.50
2022-12-18T13:38:36.925Z,24.20
2022-12-18T13:40:44.417Z,22.83
2022-12-18T13:43:06.043Z,23.07
2022-12-18T13:45:42.813Z,23.13
2022-12-18T13:47:45.048Z,22.90
2022-12-18T13:49:49.392Z,22.87
2022-12-18T13:51:54.871Z,23.93
2022-12-18T13:54:18.151Z,21.47
2022-12-18T13:56:25.868Z,23.27
2022-12-18T13:58:27.542Z,21.43
2022-12-18T14:00:30.725Z,22.17
2022-12-18T14:02:34.057Z,21.23
2022-12-18T14:04:37.095Z,23.27
2022-12-18T14:06:39.815Z,21.33
2022-12-18T14:08:45.298Z,23.50
2022-12-18T14:10:56.790Z,22.53
2022-12-18T14:13:06.670Z,21.40
2022-12-18T14:15:27.547Z,21.97
2022-12-18T14:17:29.312Z,23.83
2022-12-18T14:19:35.599Z,22.93
2022-12-18T14:21:38.969Z,22.53
2022-12-18T14:23:43.693Z,21.53
2022-12-18T14:25:47.155Z,21.33
2022-12-18T14:27:52.809Z,22.77
2022-12-18T14:29:54.485Z,21.80
2022-12-18T14:32:17.550Z,23.63
2022-12-18T14:34:21.592Z,23.73
2022-12-18T14:36:29.863Z,22.10
2022-12-18T14:38:37.552Z,22.03
2022-12-18T14:40:39.269Z,22.67
2022-12-18T14:42:42.984Z,21.03
2022-12-18T14:45:13.005Z,22.17
2022-12-18T14:47:06.353Z,20.83
2022-12-18T14:49:34.866Z,21.70
2022-12-18T14:51:40.365Z,23.10
2022-12-18T14:53:57.877Z,22.37
2022-12-18T14:55:59.563Z,22.97
2022-12-18T14:58:01.067Z,20.40
2022-12-18T15:00:19.716Z,23.83
2022-12-18T15:02:26.156Z,19.60
2022-12-18T15:04:30.783Z,20.90
2022-12-18T15:06:38.417Z,23.57
2022-12-18T15:08:39.917Z,19.60
2022-12-18T15:10:48.692Z,19.63
2022-12-18T15:12:56.380Z,18.07
2022-12-18T15:14:58.227Z,21.07
2022-12-18T15:17:18.754Z,21.53
2022-12-18T15:19:22.528Z,22.43
2022-12-18T15:21:25.809Z,20.73
2022-12-18T15:23:34.940Z,21.57
2022-12-18T15:25:38.859Z,20.97
2022-12-18T15:27:50.779Z,19.03
2022-12-18T15:30:19.905Z,19.73
2022-12-18T15:32:22.934Z,20.77
2022-12-18T15:34:24.963Z,17.73
2022-12-18T15:36:30.549Z,19.33
2022-12-18T15:38:32.892Z,20.57
2022-12-18T15:40:34.639Z,18.87
2022-12-18T15:42:54.973Z,18.50
2022-12-18T15:44:56.665Z,21.07
2022-12-18T15:46:59.162Z,18.37
2022-12-18T15:49:04.123Z,20.23
2022-12-18T15:51:09.165Z,19.20
2022-12-18T15:53:13.434Z,19.50
2022-12-18T15:55:37.923Z,19.47
2022-12-18T15:57:40.137Z,19.20
2022-12-18T15:59:45.181Z,19.17
2022-12-18T16:01:49.335Z,18.63
2022-12-18T16:03:54.512Z,18.30
2022-12-18T16:05:56.387Z,18.17
2022-12-18T16:07:59.439Z,16.17
2022-12-18T16:10:02.420Z,17.53
2022-12-18T16:12:04.833Z,16.73
2022-12-18T16:14:22.962Z,19.10
2022-12-18T16:16:25.739Z,20.57
2022-12-18T16:18:30.914Z,19.00
2022-12-18T16:20:32.739Z,17.97
2022-12-18T16:22:34.514Z,21.13
2022-12-18T16:24:37.247Z,19.33
2022-12-18T16:26:45.017Z,20.30
2022-12-18T16:28:48.518Z,19.27
2022-12-18T16:30:50.533Z,18.53
2022-12-18T16:32:52.129Z,19.63
2022-12-18T16:34:53.676Z,17.37
2022-12-18T16:37:01.710Z,17.23
2022-12-18T16:39:06.850Z,19.10
2022-12-18T16:41:35.082Z,18.10
2022-12-18T16:43:36.774Z,18.97
2022-12-18T16:45:38.597Z,17.97
2022-12-18T16:47:40.560Z,18.23
2022-12-18T16:49:46.040Z,21.20
2022-12-18T16:51:48.221Z,17.43
2022-12-18T16:53:49.742Z,20.53
2022-12-18T16:55:56.067Z,18.60
2022-12-18T16:58:00.798Z,17.97
2022-12-18T17:00:08.789Z,18.40
2022-12-18T17:02:32.325Z,18.90
2022-12-18T17:04:37.250Z,21.43
2022-12-18T17:06:41.637Z,21.33
2022-12-18T17:08:45.886Z,18.47
2022-12-18T17:10:52.682Z,20.23
2022-12-18T17:12:57.271Z,19.23
2022-12-18T17:14:59.120Z,20.17
2022-12-18T17:17:24.456Z,21.50
2022-12-18T17:19:27.107Z,19.30
2022-12-18T17:21:29.184Z,18.47
2022-12-18T17:23:32.897Z,18.67
2022-12-18T17:25:34.550Z,19.93
2022-12-18T17:27:36.171Z,18.63
2022-12-18T17:29:42.448Z,21.10
2022-12-18T17:31:48.257Z,21.77
2022-12-18T17:33:50.806Z,19.27
2022-12-18T17:36:02.135Z,22.23
2022-12-18T17:38:09.102Z,20.03
2022-12-18T17:40:11.999Z,20.37
2022-12-18T17:42:16.574Z,23.77
2022-12-18T17:44:21.328Z,21.73
2022-12-18T17:46:24.213Z,21.10
2022-12-18T17:48:25.785Z,22.57
2022-12-18T17:50:27.610Z,20.77
2022-12-18T17:52:29.438Z,20.77
2022-12-18T17:54:33.576Z,21.57
2022-12-18T17:56:35.358Z,22.37
2022-12-18T17:58:42.730Z,21.47
2022-12-18T18:00:44.426Z,21.77
2022-12-18T18:02:47.729Z,19.33
2022-12-18T18:04:49.546Z,21.23
2022-12-18T18:06:51.112Z,23.63
2022-12-18T18:08:53.767Z,22.57
2022-12-18T18:10:55.898Z,22.60
2022-12-18T18:13:17.231Z,21.77
2022-12-18T18:15:19.418Z,20.70
2022-12-18T18:17:23.142Z,20.90
2022-12-18T18:19:28.209Z,21.73
2022-12-18T18:21:31.310Z,25.30
2022-12-18T18:23:36.654Z,23.30
2022-12-18T18:25:41.030Z,21.43
2022-12-18T18:27:42.647Z,21.30
2022-12-18T18:29:45.221Z,23.23
2022-12-18T18:31:56.553Z,23.10
2022-12-18T18:34:01.786Z,24.10
2022-12-18T18:36:04.075Z,24.47
2022-12-18T18:38:05.708Z,24.50
2022-12-18T18:40:07.700Z,21.77
2022-12-18T18:42:09.392Z,23.87
2022-12-18T18:44:11.080Z,24.33
2022-12-18T18:46:17.876Z,22.80
2022-12-18T18:48:22.363Z,23.43
2022-12-18T18:50:24.853Z,21.53
2022-12-18T18:52:26.375Z,24.67
2022-12-18T18:54:27.979Z,24.67
2022-12-18T18:58:57.584Z,21.17
2022-12-18T19:01:01.804Z,23.80
2022-12-18T19:03:05.564Z,24.47
2022-12-18T19:05:07.545Z,23.00
2022-12-18T19:07:09.539Z,24.87
2022-12-18T19:09:12.469Z,22.37
2022-12-18T19:11:36.614Z,24.70
2022-12-18T19:13:38.771Z,23.03
2022-12-18T19:15:40.532Z,22.47
2022-12-18T19:17:42.200Z,21.97
2022-12-18T19:19:48.117Z,22.87
2022-12-18T19:21:50.257Z,21.33
2022-12-18T19:23:52.790Z,23.87
2022-12-18T19:26:10.288Z,21.80
2022-12-18T19:28:22.299Z,21.27
2022-12-18T19:30:24.291Z,23.00
2022-12-18T19:32:27.121Z,21.70
2022-12-18T19:34:28.730Z,22.47
2022-12-18T19:36:31.534Z,21.43
2022-12-18T19:38:33.172Z,20.37
2022-12-18T19:40:34.949Z,21.97
2022-12-18T19:42:37.124Z,21.37
2022-12-18T19:44:41.793Z,27.60
2022-12-18T19:46:46.172Z,20.53
2022-12-18T19:48:48.546Z,20.63
2022-12-18T19:50:50.638Z,21.40
2022-12-18T19:52:53.436Z,20.93
2022-12-18T19:54:55.023Z,21.50
2022-12-18T19:56:56.861Z,24.67
2022-12-18T19:58:59.573Z,23.93
2022-12-18T20:01:04.064Z,23.40
2022-12-18T20:03:19.896Z,20.37
2022-12-18T20:05:27.394Z,21.53
2022-12-18T20:07:28.998Z,20.47
2022-12-18T20:09:33.049Z,21.73
2022-12-18T20:11:41.879Z,21.87
2022-12-18T20:13:48.438Z,22.83
2022-12-18T20:15:50.352Z,23.90
2022-12-18T20:17:52.519Z,21.30
2022-12-18T20:19:54.499Z,21.53
2022-12-18T20:21:56.178Z,20.93
2022-12-18T20:23:59.846Z,21.90
2022-12-18T20:26:01.622Z,22.07
2022-12-18T20:28:06.222Z,19.67
2022-12-18T20:30:08.707Z,24.13
2022-12-18T20:32:10.696Z,21.70
2022-12-18T20:34:12.506Z,22.43
2022-12-18T20:36:16.912Z,22.17
2022-12-18T20:38:25.307Z,20.37
2022-12-18T20:40:28.620Z,20.63
2022-12-18T20:42:30.454Z,21.00
2022-12-18T20:44:33.668Z,20.03
2022-12-18T20:46:35.643Z,19.50
2022-12-18T20:48:37.473Z,20.13
2022-12-18T20:50:40.219Z,20.37
2022-12-18T20:52:42.029Z,19.53
2022-12-18T20:54:44.279Z,21.53
2022-12-18T20:56:48.441Z,22.07
2022-12-18T20:58:56.898Z,21.23
2022-12-18T21:01:07.729Z,19.13
2022-12-18T21:03:10.688Z,18.97
2022-12-18T21:05:12.398Z,18.63
2022-12-18T21:07:14.204Z,19.37
2022-12-18T21:09:15.907Z,20.90
2022-12-18T21:11:39.086Z,18.87
2022-12-18T21:13:42.872Z,22.70
2022-12-18T21:15:44.603Z,20.40
2022-12-18T21:17:46.452Z,20.20
2022-12-18T21:19:48.062Z,21.03
2022-12-18T21:21:51.734Z,21.20
2022-12-18T21:23:53.533Z,19.70
2022-12-18T21:25:55.902Z,19.97
2022-12-18T21:27:59.349Z,17.93
2022-12-18T21:30:01.071Z,20.67
2022-12-18T21:32:03.865Z,19.27
2022-12-18T21:34:07.095Z,21.80
2022-12-18T21:36:09.630Z,18.23
2022-12-18T21:38:11.418Z,20.73
2022-12-18T21:40:13.551Z,21.07
2022-12-18T21:42:34.017Z,18.00
2022-12-18T21:44:41.426Z,19.87
2022-12-18T21:46:51.371Z,19.57
2022-12-18T21:48:56.522Z,19.10
2022-12-18T21:50:58.174Z,20.97
2022-12-18T21:53:02.193Z,20.43
2022-12-18T21:55:09.032Z,20.93
2022-12-18T21:57:13.610Z,18.73
2022-12-18T21:59:19.560Z,18.87
2022-12-18T22:01:21.277Z,18.00
2022-12-18T22:03:23.185Z,18.77
2022-12-18T22:05:24.882Z,19.93
2022-12-18T22:07:29.040Z,20.20
2022-12-18T22:09:31.833Z,18.07
2022-12-18T22:11:33.762Z,18.80
2022-12-18T22:13:38.236Z,18.33
2022-12-18T22:15:43.074Z,17.73
2022-12-18T22:17:44.659Z,18.33
2022-12-18T22:19:46.129Z,19.07
2022-12-18T22:21:49.378Z,18.67
2022-12-18T22:24:02.143Z,19.77
2022-12-18T22:26:03.817Z,18.47
2022-12-18T22:28:24.094Z,20.57
2022-12-18T22:30:25.752Z,19.80
2022-12-18T22:32:30.692Z,18.33
2022-12-18T22:34:36.531Z,19.13
2022-12-18T22:36:41.223Z,16.57
2022-12-18T22:38:42.884Z,21.90
2022-12-18T22:40:44.554Z,19.50
2022-12-18T22:42:46.413Z,19.77
2022-12-18T22:44:50.478Z,18.47
2022-12-18T22:47:05.921Z,18.53
2022-12-18T22:49:12.385Z,19.97
2022-12-18T22:51:18.596Z,21.10
2022-12-18T22:53:21.117Z,25.17
2022-12-18T22:55:22.549Z,28.63
2022-12-18T22:57:25.126Z,27.33
2022-12-18T22:59:26.941Z,25.13
2022-12-18T23:01:30.761Z,27.13
2022-12-18T23:03:35.914Z,21.93
2022-12-18T23:05:37.379Z,22.80
2022-12-18T23:07:39.017Z,22.00
2022-12-18T23:09:40.664Z,22.90
2022-12-18T23:11:42.621Z,20.53
2022-12-18T23:13:49.304Z,20.93
2022-12-18T23:15:50.916Z,21.03
2022-12-18T23:17:52.529Z,18.90
2022-12-18T23:19:54.432Z,20.80
2022-12-18T23:21:58.675Z,21.70
2022-12-18T23:24:00.429Z,20.30
2022-12-18T23:26:14.570Z,22.03
2022-12-18T23:28:16.204Z,20.50
2022-12-18T23:30:24.044Z,20.43
2022-12-18T23:32:25.709Z,21.50
2022-12-18T23:34:29.332Z,19.60
2022-12-18T23:36:34.004Z,18.80
2022-12-18T23:38:49.641Z,21.00
2022-12-18T23:40:51.048Z,20.97
2022-12-18T23:42:58.740Z,19.87
2022-12-18T23:45:00.438Z,21.23
2022-12-18T23:47:07.018Z,22.30
2022-12-18T23:49:09.510Z,26.53
2022-12-18T23:51:15.537Z,26.97
2022-12-18T23:53:17.150Z,25.90
2022-12-18T23:55:19.015Z,23.47
2022-12-18T23:57:20.547Z,24.40
2022-12-18T23:59:25.671Z,24.87
